Time;durP1;ratioP1;P1;durP2;ratioP2;P2;SDS_P1;SDS_P2;PMS_P1;PMS_P2;Temp;Humidity;BMP_temperature;BMP_pressure;BME280_temperature;BME280_humidity;BME280_pressure;Samples;Min_cycle;Max_cycle;Signal;HPM_P1;HPM_P2
2022/05/06 00:00:11;;;;;;;31.38;25.08;;;11.90;99.90;;;;;;5054264;28;20045;-75
2022/05/06 00:02:39;;;;;;;31.80;23.60;;;11.80;99.90;;;;;;5054593;28;20484;-75
2022/05/06 00:05:07;;;;;;;24.10;21.23;;;11.80;99.90;;;;;;5054523;28;20049;-74
2022/05/06 00:07:35;;;;;;;24.98;20.63;;;11.80;99.90;;;;;;5053159;28;20045;-74
2022/05/06 00:10:03;;;;;;;23.83;19.48;;;11.70;99.90;;;;;;5054359;28;20484;-74
2022/05/06 00:12:31;;;;;;;21.73;19.02;;;11.70;99.90;;;;;;5052894;28;20075;-74
2022/05/06 00:14:59;;;;;;;21.95;19.42;;;11.80;99.90;;;;;;5054055;28;20048;-74
2022/05/06 00:17:27;;;;;;;21.70;19.50;;;11.80;99.90;;;;;;5053071;28;20415;-73
2022/05/06 00:19:55;;;;;;;24.02;19.77;;;11.70;99.90;;;;;;5054092;28;20484;-75
2022/05/06 00:22:22;;;;;;;21.58;19.23;;;11.70;99.90;;;;;;5054214;28;20045;-75
2022/05/06 00:24:51;;;;;;;23.23;18.70;;;11.70;99.90;;;;;;5052760;28;20041;-73
2022/05/06 00:27:19;;;;;;;24.10;20.00;;;11.70;99.90;;;;;;5052731;28;20053;-74
2022/05/06 00:29:47;;;;;;;21.95;19.42;;;11.70;99.90;;;;;;5052837;28;20048;-74
2022/05/06 00:32:16;;;;;;;24.52;20.10;;;11.80;99.90;;;;;;5054337;28;20534;-74
2022/05/06 00:34:43;;;;;;;25.73;19.73;;;11.80;99.90;;;;;;5059159;28;20132;-73
2022/05/06 00:37:11;;;;;;;27.58;22.63;;;11.80;99.90;;;;;;5066826;28;20048;-73
2022/05/06 00:39:38;;;;;;;24.58;20.42;;;11.80;99.90;;;;;;5059689;28;20049;-73
2022/05/06 00:42:07;;;;;;;25.58;21.70;;;11.80;99.90;;;;;;5055920;28;20033;-73
2022/05/06 00:44:34;;;;;;;26.73;21.75;;;11.80;99.90;;;;;;5054940;28;20041;-73
2022/05/06 00:47:04;;;;;;;27.65;21.63;;;11.80;99.90;;;;;;5054296;28;20067;-74
2022/05/06 00:49:34;;;;;;;25.55;20.70;;;11.80;99.90;;;;;;5053466;28;20067;-74
2022/05/06 00:52:03;;;;;;;26.73;21.17;;;11.80;99.90;;;;;;5052342;28;20488;-74
2022/05/06 00:54:32;;;;;;;28.35;22.27;;;11.80;99.90;;;;;;5044796;28;20044;-74
2022/05/06 00:57:00;;;;;;;26.90;21.52;;;11.80;99.90;;;;;;5053874;28;20048;-74
2022/05/06 00:59:28;;;;;;;26.67;21.98;;;11.80;99.90;;;;;;5056413;28;20053;-73
2022/05/06 01:01:57;;;;;;;28.80;22.20;;;11.70;99.90;;;;;;5056917;28;20150;-74
2022/05/06 01:04:25;;;;;;;26.10;21.73;;;11.70;99.90;;;;;;5055054;28;20136;-73
2022/05/06 01:06:55;;;;;;;26.33;21.60;;;11.70;99.90;;;;;;5054815;28;20052;-74
2022/05/06 01:09:23;;;;;;;26.40;21.25;;;11.60;99.90;;;;;;5054897;28;20495;-73
2022/05/06 01:11:54;;;;;;;24.73;19.90;;;11.60;99.90;;;;;;5056642;28;20041;-73
2022/05/06 01:14:33;;;;;;;24.15;20.33;;;11.60;99.90;;;;;;5057394;28;20057;-74
2022/05/06 01:17:04;;;;;;;25.52;20.20;;;11.60;99.90;;;;;;5054282;28;20567;-73
2022/05/06 01:19:32;;;;;;;24.55;19.35;;;11.50;99.90;;;;;;5053051;28;20139;-74
2022/05/06 01:22:01;;;;;;;26.92;20.75;;;11.50;99.90;;;;;;5051966;28;20411;-75
2022/05/06 01:24:28;;;;;;;27.55;22.55;;;11.50;99.90;;;;;;5052284;28;20135;-73
2022/05/06 01:27:03;;;;;;;30.73;24.40;;;11.50;99.90;;;;;;5051698;28;20052;-74
2022/05/06 01:29:32;;;;;;;30.20;23.30;;;11.40;99.90;;;;;;5053933;28;20048;-74
2022/05/06 01:32:01;;;;;;;30.65;24.95;;;11.40;99.90;;;;;;5056009;28;20099;-74
2022/05/06 01:34:32;;;;;;;29.75;25.02;;;11.40;99.90;;;;;;5056138;28;20419;-74
2022/05/06 01:37:03;;;;;;;29.90;25.20;;;11.40;99.90;;;;;;5056519;28;20053;-74
2022/05/06 01:39:34;;;;;;;32.03;26.05;;;11.40;99.90;;;;;;5056653;28;20523;-73
2022/05/06 01:42:06;;;;;;;28.15;24.13;;;11.30;99.90;;;;;;5055957;28;20384;-74
2022/05/06 01:44:46;;;;;;;32.33;26.15;;;11.30;99.90;;;;;;5055937;28;20044;-74
2022/05/06 01:47:21;;;;;;;30.65;24.52;;;11.30;99.90;;;;;;5055788;28;20519;-74
2022/05/06 01:49:51;;;;;;;28.58;24.52;;;11.30;99.90;;;;;;5058125;28;20052;-73
2022/05/06 01:52:22;;;;;;;28.95;23.75;;;11.30;99.90;;;;;;5061033;28;20059;-74
2022/05/06 01:54:50;;;;;;;28.58;22.75;;;11.30;99.90;;;;;;5060936;28;20079;-74
2022/05/06 01:57:18;;;;;;;25.45;22.05;;;11.30;99.90;;;;;;5057756;28;20136;-75
2022/05/06 01:59:47;;;;;;;27.25;21.40;;;11.20;99.90;;;;;;5057482;28;20052;-75
2022/05/06 02:02:23;;;;;;;27.38;24.02;;;11.20;99.90;;;;;;5057131;28;20056;-74
2022/05/06 02:07:42;;;;;;;24.80;21.10;;;11.20;99.90;;;;;;5055973;28;20052;-75
2022/05/06 02:10:10;;;;;;;24.95;21.42;;;11.10;99.90;;;;;;5055486;28;20056;-76
2022/05/06 02:12:41;;;;;;;24.98;21.55;;;11.10;99.90;;;;;;5055693;28;20411;-75
2022/05/06 02:15:24;;;;;;;24.20;21.08;;;11.10;99.90;;;;;;5055178;28;20057;-75
2022/05/06 02:17:55;;;;;;;25.08;20.48;;;11.10;99.90;;;;;;5057108;28;20053;-75
2022/05/06 02:20:46;;;;;;;27.85;21.83;;;11.10;99.90;;;;;;5055238;28;20059;-75
2022/05/06 02:23:38;;;;;;;29.00;21.95;;;11.00;99.90;;;;;;5055907;28;20053;-75
2022/05/06 02:26:20;;;;;;;24.33;21.48;;;11.00;99.90;;;;;;5054996;28;20052;-75
2022/05/06 02:28:51;;;;;;;25.42;20.42;;;11.00;99.90;;;;;;5054904;28;20086;-75
2022/05/06 02:34:04;;;;;;;25.05;21.10;;;10.90;99.90;;;;;;5055121;28;20102;-75
2022/05/06 02:36:40;;;;;;;29.15;22.48;;;10.90;99.90;;;;;;5064022;28;20109;-75
2022/05/06 02:39:09;;;;;;;25.73;20.50;;;10.90;99.90;;;;;;5078325;28;20060;-74
2022/05/06 02:41:36;;;;;;;25.73;21.38;;;10.90;99.90;;;;;;5078899;28;20101;-74
2022/05/06 02:44:05;;;;;;;24.63;20.90;;;10.90;99.90;;;;;;5079002;28;20060;-74
2022/05/06 02:46:38;;;;;;;28.05;22.80;;;10.90;99.90;;;;;;5055643;28;20037;-75
2022/05/06 02:49:06;;;;;;;28.60;22.80;;;10.90;99.90;;;;;;5055799;28;20159;-76
2022/05/06 02:51:33;;;;;;;25.83;23.02;;;10.80;99.90;;;;;;5054667;28;20053;-75
2022/05/06 02:54:03;;;;;;;24.52;21.92;;;10.70;99.90;;;;;;5054247;28;20415;-75
2022/05/06 02:56:36;;;;;;;30.70;21.15;;;10.70;99.90;;;;;;5055170;28;20041;-75
2022/05/06 02:59:05;;;;;;;28.40;21.85;;;10.70;99.90;;;;;;5054548;28;20051;-75
2022/05/06 03:01:36;;;;;;;25.77;20.33;;;10.70;99.90;;;;;;5054820;28;20094;-75
2022/05/06 03:04:11;;;;;;;22.75;19.25;;;10.70;99.90;;;;;;5054397;28;20117;-75
2022/05/06 03:06:42;;;;;;;28.63;19.23;;;10.70;99.90;;;;;;5055136;28;20111;-75
2022/05/06 03:09:11;;;;;;;20.67;18.58;;;10.60;99.90;;;;;;5054580;28;20045;-75
2022/05/06 03:11:40;;;;;;;19.27;17.27;;;10.60;99.90;;;;;;5054434;28;20060;-75
2022/05/06 03:14:15;;;;;;;21.23;18.48;;;10.60;99.90;;;;;;5054308;28;20095;-75
2022/05/06 03:16:54;;;;;;;23.85;18.45;;;10.70;99.90;;;;;;5054032;28;20523;-75
2022/05/06 03:19:21;;;;;;;20.20;17.73;;;10.70;99.90;;;;;;5053731;28;20045;-75
2022/05/06 03:21:54;;;;;;;22.27;18.35;;;10.80;99.90;;;;;;5055543;28;20438;-75
2022/05/06 03:24:21;;;;;;;19.80;17.55;;;10.80;99.90;;;;;;5054160;28;20404;-75
2022/05/06 03:26:51;;;;;;;22.20;17.30;;;10.80;99.90;;;;;;5053752;28;20049;-76
2022/05/06 03:29:19;;;;;;;21.52;18.30;;;10.70;99.90;;;;;;5055250;28;20116;-75
2022/05/06 03:31:47;;;;;;;22.42;18.50;;;10.80;99.90;;;;;;5053501;28;20140;-75
2022/05/06 03:34:16;;;;;;;20.13;18.02;;;10.80;99.90;;;;;;5054858;28;20051;-75
2022/05/06 03:36:45;;;;;;;27.25;20.50;;;10.80;99.90;;;;;;5053747;28;20041;-76
2022/05/06 03:39:14;;;;;;;23.55;20.48;;;10.80;99.90;;;;;;5053957;28;20045;-76
2022/05/06 03:41:58;;;;;;;27.25;20.85;;;10.70;99.90;;;;;;5053695;28;20417;-75
2022/05/06 03:44:27;;;;;;;24.70;19.88;;;10.70;99.90;;;;;;5054187;28;20443;-76
2022/05/06 03:46:56;;;;;;;24.35;21.10;;;10.70;99.90;;;;;;5053344;28;20044;-75
2022/05/06 03:49:35;;;;;;;25.25;20.08;;;10.70;99.90;;;;;;5053544;28;20523;-74
2022/05/06 03:52:03;;;;;;;27.02;20.52;;;10.70;99.90;;;;;;5052925;28;20053;-75
2022/05/06 03:54:33;;;;;;;28.70;21.95;;;10.70;99.90;;;;;;5053138;28;20139;-76
2022/05/06 03:57:02;;;;;;;24.80;21.15;;;10.70;99.90;;;;;;5053702;28;20107;-75
2022/05/06 03:59:31;;;;;;;29.17;21.05;;;10.60;99.90;;;;;;5053693;28;20093;-75
2022/05/06 04:02:06;;;;;;;27.20;21.35;;;10.60;99.90;;;;;;5053656;28;20041;-76
2022/05/06 04:04:34;;;;;;;24.75;19.85;;;10.70;99.90;;;;;;5053039;28;20063;-76
2022/05/06 04:07:07;;;;;;;25.52;20.27;;;10.70;99.90;;;;;;5053406;28;20135;-75
2022/05/06 04:09:42;;;;;;;;;;;10.70;99.90;;;;;;5053552;28;20041;-75
2022/05/06 04:12:12;;;;;;;24.83;20.15;;;10.70;99.90;;;;;;5054725;28;19932;-75
2022/05/06 04:14:46;;;;;;;27.92;21.50;;;10.70;99.90;;;;;;5052686;28;20508;-76
2022/05/06 04:17:16;;;;;;;30.27;23.08;;;10.80;99.90;;;;;;5053005;28;20056;-76
2022/05/06 04:23:29;;;;;;;32.38;23.48;;;10.80;99.90;;;;;;5053242;28;20137;-75
2022/05/06 04:25:24;;;;;;;35.67;23.33;;;10.80;99.90;;;;;;5053756;28;20051;-74
2022/05/06 04:27:54;;;;;;;27.63;23.00;;;10.80;99.90;;;;;;5054630;28;20404;-75
2022/05/06 04:30:23;;;;;;;35.17;24.17;;;10.90;99.90;;;;;;5053348;28;20099;-75
2022/05/06 04:33:06;;;;;;;26.88;22.13;;;11.00;99.90;;;;;;5053424;28;20044;-75
2022/05/06 04:35:35;;;;;;;26.30;21.50;;;11.00;99.90;;;;;;5053159;28;20084;-76
2022/05/06 04:38:05;;;;;;;25.08;21.25;;;11.10;99.90;;;;;;5052652;28;20060;-75
2022/05/06 04:40:36;;;;;;;30.90;21.23;;;11.10;99.90;;;;;;5051128;28;20041;-75
2022/05/06 04:43:07;;;;;;;31.15;21.80;;;11.10;99.90;;;;;;5052756;28;20072;-75
2022/05/06 04:45:38;;;;;;;30.75;21.80;;;11.20;99.90;;;;;;5054205;28;20508;-73
2022/05/06 04:48:10;;;;;;;30.88;20.85;;;11.20;99.90;;;;;;5056345;28;20037;-73
2022/05/06 04:50:40;;;;;;;31.33;21.60;;;11.20;99.90;;;;;;5053717;28;20044;-73
2022/05/06 04:53:11;;;;;;;34.95;21.50;;;11.20;99.90;;;;;;5053037;28;20049;-73
2022/05/06 04:55:40;;;;;;;24.48;20.85;;;11.30;99.90;;;;;;5052772;28;20049;-73
2022/05/06 04:58:11;;;;;;;26.50;21.17;;;11.30;99.90;;;;;;5052663;28;20040;-74
2022/05/06 05:00:40;;;;;;;26.48;20.10;;;11.30;99.90;;;;;;5052657;28;20049;-74
2022/05/06 05:03:07;;;;;;;24.27;20.33;;;11.40;99.90;;;;;;5052296;28;20053;-74
2022/05/06 05:05:36;;;;;;;22.38;19.45;;;11.50;99.90;;;;;;5051389;28;20045;-74
2022/05/06 05:08:08;;;;;;;24.33;19.60;;;11.60;99.90;;;;;;5054770;28;20113;-74
2022/05/06 05:10:37;;;;;;;26.27;19.65;;;11.70;99.90;;;;;;5054521;28;20037;-73
2022/05/06 05:13:06;;;;;;;24.67;20.30;;;11.70;99.90;;;;;;5052762;28;20415;-73
2022/05/06 05:15:37;;;;;;;28.52;21.08;;;11.80;99.90;;;;;;5053972;28;20056;-74
2022/05/06 05:18:07;;;;;;;27.83;20.98;;;11.80;99.90;;;;;;5106291;22;20055;-76
2022/05/06 05:20:35;;;;;;;36.83;22.50;;;11.90;99.90;;;;;;5092164;28;20043;-76
2022/05/06 05:23:03;;;;;;;31.05;22.25;;;12.00;99.90;;;;;;5092633;28;20048;-76
2022/05/06 05:25:33;;;;;;;31.98;22.27;;;12.10;99.90;;;;;;5097164;28;20097;-76
2022/05/06 05:28:02;;;;;;;33.45;22.52;;;12.20;99.90;;;;;;5100636;28;20126;-76
2022/05/06 05:30:35;;;;;;;26.38;20.25;;;12.30;99.90;;;;;;5096230;28;20047;-77
2022/05/06 05:33:09;;;;;;;30.05;19.63;;;12.40;99.90;;;;;;5079006;28;20097;-76
2022/05/06 05:35:42;;;;;;;28.23;21.20;;;12.50;99.90;;;;;;5079433;28;20047;-76
2022/05/06 05:38:10;;;;;;;30.95;20.98;;;12.60;99.90;;;;;;5081439;28;20460;-77
2022/05/06 05:40:40;;;;;;;32.95;21.50;;;12.70;99.90;;;;;;5106862;28;20043;-77
2022/05/06 05:48:19;;;;;;;40.88;24.70;;;12.90;99.90;;;;;;5088206;28;20047;-77
2022/05/06 05:48:51;;;;;;;47.55;24.80;;;13.00;99.90;;;;;;5076428;28;20051;-76
2022/05/06 05:51:19;;;;;;;46.17;25.90;;;13.10;99.90;;;;;;5080325;28;20055;-76
2022/05/06 05:53:52;;;;;;;42.92;25.42;;;13.10;99.90;;;;;;5081765;28;20040;-77
2022/05/06 05:56:22;;;;;;;43.45;24.15;;;13.30;99.90;;;;;;5083153;28;20087;-76
2022/05/06 05:58:51;;;;;;;34.55;22.02;;;13.30;99.90;;;;;;5081213;28;20031;-77
2022/05/06 06:01:22;;;;;;;27.48;17.05;;;13.40;99.90;;;;;;5101729;28;20056;-75
2022/05/06 06:03:52;;;;;;;23.15;15.98;;;13.50;99.90;;;;;;5099719;28;20044;-76
2022/05/06 06:06:21;;;;;;;28.55;18.80;;;13.70;99.90;;;;;;5093502;28;20382;-77
2022/05/06 06:08:53;;;;;;;30.25;18.52;;;13.80;99.90;;;;;;5077272;28;20495;-77
2022/05/06 06:11:21;;;;;;;26.38;17.42;;;13.90;99.90;;;;;;5095617;28;20051;-76
2022/05/06 06:13:52;;;;;;;27.38;18.13;;;14.00;99.90;;;;;;5077656;28;20048;-77
2022/05/06 06:16:24;;;;;;;34.30;18.25;;;14.10;99.90;;;;;;5069910;28;20522;-76
2022/05/06 06:18:53;;;;;;;27.10;17.50;;;14.20;99.90;;;;;;5091310;28;20040;-76
2022/05/06 06:21:23;;;;;;;31.10;18.17;;;14.30;99.90;;;;;;5097902;28;20032;-76
2022/05/06 06:23:55;;;;;;;23.25;16.23;;;14.50;99.90;;;;;;5079879;28;20082;-77
2022/05/06 06:26:26;;;;;;;22.77;14.93;;;14.60;99.90;;;;;;5080178;28;20560;-77
2022/05/06 06:28:55;;;;;;;22.70;15.52;;;14.70;99.90;;;;;;5079585;28;20052;-76
2022/05/06 06:31:23;;;;;;;33.13;25.50;;;15.00;99.90;;;;;;5080822;28;20039;-77
2022/05/06 06:33:53;;;;;;;23.38;16.98;;;15.10;99.90;;;;;;5079981;28;20052;-76
2022/05/06 06:36:32;;;;;;;25.23;16.33;;;15.10;99.90;;;;;;5097261;28;20101;-76
2022/05/06 06:39:03;;;;;;;21.42;16.63;;;15.20;99.90;;;;;;5079589;28;20139;-77
2022/05/06 06:41:36;;;;;;;22.92;16.85;;;15.30;99.90;;;;;;5079698;28;20044;-76
2022/05/06 06:44:16;;;;;;;22.70;16.30;;;15.40;99.90;;;;;;5097895;28;20068;-76
2022/05/06 06:47:13;;;;;;;31.45;20.55;;;15.60;99.90;;;;;;5099115;28;20076;-76
2022/05/06 06:50:21;;;;;;;24.13;17.05;;;15.70;99.90;;;;;;5083269;28;20044;-75
2022/05/06 06:53:02;;;;;;;29.63;19.38;;;15.90;99.90;;;;;;5083217;28;20051;-76
2022/05/06 06:55:30;;;;;;;25.45;17.20;;;15.90;99.90;;;;;;5081011;28;20481;-76
2022/05/06 06:57:57;;;;;;;34.83;20.73;;;16.00;99.90;;;;;;5096395;28;20040;-76
2022/05/06 07:00:25;;;;;;;27.60;20.65;;;16.00;99.90;;;;;;5096228;28;20515;-77
2022/05/06 07:02:53;;;;;;;27.77;18.90;;;16.20;99.90;;;;;;5097584;28;20521;-76
2022/05/06 07:05:22;;;;;;;27.05;18.83;;;16.50;99.90;;;;;;5059954;28;20586;-77
2022/05/06 07:13:19;;;;;;;22.08;16.30;;;16.90;99.90;;;;;;5084039;28;20512;-76
2022/05/06 07:15:47;;;;;;;22.95;16.02;;;17.10;99.90;;;;;;5096771;28;20089;-76
2022/05/06 07:18:15;;;;;;;29.63;21.13;;;17.10;99.90;;;;;;5096861;28;20179;-77
2022/05/06 07:20:44;;;;;;;21.23;15.43;;;17.30;99.90;;;;;;5098244;28;20057;-75
2022/05/06 07:23:12;;;;;;;18.40;15.25;;;17.50;99.90;;;;;;5096993;28;20403;-77
2022/05/06 07:25:39;;;;;;;20.85;15.02;;;17.80;99.90;;;;;;5078180;28;20054;-76
2022/05/06 07:28:08;;;;;;;16.40;13.60;;;18.10;99.90;;;;;;5094892;28;20466;-76
2022/05/06 07:30:36;;;;;;;19.63;13.48;;;18.20;99.90;;;;;;5096214;28;20036;-77
2022/05/06 07:33:04;;;;;;;20.38;13.85;;;18.30;99.90;;;;;;5095725;28;20052;-77
2022/05/06 07:35:32;;;;;;;20.02;13.65;;;18.60;99.90;;;;;;5095909;28;20044;-76
2022/05/06 07:38:00;;;;;;;19.55;13.63;;;18.80;99.90;;;;;;5096171;28;20372;-76
2022/05/06 07:40:28;;;;;;;19.23;14.20;;;19.00;99.90;;;;;;5096350;28;20044;-76
2022/05/06 07:42:55;;;;;;;19.20;14.85;;;19.10;99.90;;;;;;5096956;28;20040;-78
2022/05/06 07:45:23;;;;;;;26.88;17.00;;;19.20;99.90;;;;;;5111193;28;20039;-77
2022/05/06 07:47:51;;;;;;;23.73;15.68;;;19.50;99.90;;;;;;5096191;28;20095;-76
2022/05/06 07:50:18;;;;;;;22.73;16.70;;;19.60;99.90;;;;;;5078238;28;20044;-78
2022/05/06 07:52:49;;;;;;;29.48;17.67;;;19.70;99.90;;;;;;5097170;28;20410;-78
2022/05/06 07:55:19;;;;;;;26.65;15.60;;;19.70;99.90;;;;;;5095930;28;20048;-76
2022/05/06 07:57:47;;;;;;;25.17;15.00;;;19.60;99.90;;;;;;5077381;28;20056;-77
2022/05/06 08:00:15;;;;;;;27.73;16.67;;;19.60;99.90;;;;;;5077622;28;20054;-76
2022/05/06 08:05:32;;;;;;;21.48;15.88;;;19.60;99.90;;;;;;5095383;28;20043;-77
2022/05/06 08:08:00;;;;;;;21.70;15.65;;;19.90;99.90;;;;;;5095134;28;20047;-75
2022/05/06 08:10:29;;;;;;;26.48;15.82;;;19.90;99.90;;;;;;5095055;28;20047;-77
2022/05/06 08:12:57;;;;;;;21.95;16.08;;;19.90;99.90;;;;;;5094616;28;20076;-77
2022/05/06 08:15:25;;;;;;;19.30;14.38;;;20.10;99.90;;;;;;5095248;28;20047;-78
2022/05/06 08:17:53;;;;;;;24.63;14.30;;;20.30;99.90;;;;;;5094894;28;20384;-76
2022/05/06 08:20:20;;;;;;;22.67;14.65;;;20.50;99.90;;;;;;5094512;28;20036;-77
2022/05/06 08:22:48;;;;;;;20.30;13.73;;;20.50;99.90;;;;;;5076446;28;20131;-77
2022/05/06 08:25:18;;;;;;;18.25;13.45;;;20.60;99.90;;;;;;5074854;28;20117;-77
2022/05/06 08:27:46;;;;;;;20.52;15.75;;;20.70;99.90;;;;;;5094818;28;20063;-75
2022/05/06 08:30:15;;;;;;;21.77;14.57;;;21.00;99.90;;;;;;5095424;28;20089;-76
2022/05/06 08:32:42;;;;;;;20.80;12.57;;;21.30;99.30;;;;;;5095322;28;20388;-76
2022/05/06 08:35:10;;;;;;;20.20;13.48;;;21.40;97.60;;;;;;5076496;28;20056;-75
2022/05/06 08:37:41;;;;;;;25.65;13.18;;;21.50;97.10;;;;;;5095267;28;20040;-76
2022/05/06 08:40:10;;;;;;;22.48;12.05;;;21.80;95.70;;;;;;5094893;28;20043;-75
2022/05/06 08:42:37;;;;;;;18.73;12.75;;;21.90;94.50;;;;;;5096267;28;20461;-76
2022/05/06 08:50:52;;;;;;;19.73;12.48;;;22.00;92.60;;;;;;5094426;28;20122;-76
2022/05/06 08:53:22;;;;;;;24.65;12.93;;;22.00;92.70;;;;;;5076182;28;20063;-76
2022/05/06 08:55:50;;;;;;;26.17;13.35;;;22.00;92.60;;;;;;5094528;28;20040;-77
2022/05/06 08:58:18;;;;;;;21.05;11.98;;;22.20;92.40;;;;;;5094651;28;20502;-76
2022/05/06 09:00:47;;;;;;;18.98;12.70;;;22.30;91.80;;;;;;5094419;28;20425;-77
2022/05/06 09:03:17;;;;;;;19.25;12.07;;;22.30;91.60;;;;;;5094794;28;20052;-76
2022/05/06 09:05:52;;;;;;;21.75;12.10;;;22.30;91.40;;;;;;5094550;28;20036;-76
2022/05/06 09:08:20;;;;;;;20.98;12.35;;;22.40;91.00;;;;;;5094298;28;20043;-77
2022/05/06 09:11:00;;;;;;;17.67;10.88;;;22.50;90.70;;;;;;5075443;28;20036;-76
2022/05/06 09:13:28;;;;;;;18.02;11.52;;;22.50;90.10;;;;;;5058811;28;20105;-75
2022/05/06 09:19:12;;;;;;;20.63;12.45;;;22.50;89.60;;;;;;5081816;28;20476;-75
2022/05/06 09:21:41;;;;;;;;;;;22.70;89.30;;;;;;5098342;28;20052;-77
2022/05/06 09:24:21;;;;;;;20.05;11.20;;;23.00;86.80;;;;;;5078139;28;20321;-77
2022/05/06 09:26:59;;;;;;;19.50;11.55;;;23.30;86.10;;;;;;5076724;28;20055;-76
2022/05/06 09:29:38;;;;;;;18.25;12.15;;;23.40;86.80;;;;;;5095112;28;20120;-76
2022/05/06 09:32:22;;;;;;;24.02;12.68;;;23.30;86.50;;;;;;5102862;28;20079;-77
2022/05/06 09:34:51;;;;;;;20.40;16.95;;;23.40;86.50;;;;;;5105350;28;20044;-77
2022/05/06 09:37:36;;;;;;;21.02;12.55;;;23.40;85.70;;;;;;5108655;28;20071;-77
2022/05/06 09:40:15;;;;;;;19.02;12.05;;;23.40;86.20;;;;;;5105409;28;20044;-76
2022/05/06 09:42:44;;;;;;;16.65;12.80;;;23.30;86.40;;;;;;5103217;28;20048;-76
2022/05/06 09:45:13;;;;;;;16.08;11.80;;;23.40;86.60;;;;;;5102048;28;20043;-75
2022/05/06 09:47:43;;;;;;;17.63;10.90;;;23.80;85.50;;;;;;5103447;28;20059;-77
2022/05/06 09:50:12;;;;;;;17.25;11.65;;;23.90;81.40;;;;;;5099913;28;20119;-76
2022/05/06 09:52:39;;;;;;;24.33;15.52;;;24.00;79.90;;;;;;5098941;28;20036;-75
2022/05/06 09:55:08;;;;;;;15.18;9.90;;;24.00;78.70;;;;;;5098830;28;20532;-76
2022/05/06 09:57:37;;;;;;;19.15;14.57;;;23.80;76.70;;;;;;5098361;28;20075;-77
2022/05/06 10:00:07;;;;;;;12.82;9.25;;;23.30;77.70;;;;;;5099382;28;20548;-77
2022/05/06 10:02:37;;;;;;;16.75;10.88;;;23.20;78.20;;;;;;5098056;28;20048;-76
2022/05/06 10:05:07;;;;;;;9.73;8.10;;;23.20;77.60;;;;;;5098174;28;20039;-75
2022/05/06 10:07:37;;;;;;;16.02;10.60;;;23.10;77.90;;;;;;5098627;28;20044;-76
2022/05/06 10:10:08;;;;;;;16.77;11.32;;;23.20;78.70;;;;;;5098290;28;20040;-75
2022/05/06 10:12:39;;;;;;;24.13;15.88;;;23.50;77.80;;;;;;5097222;28;20040;-76
2022/05/06 10:15:11;;;;;;;21.35;15.55;;;23.90;76.50;;;;;;5079597;28;20044;-76
2022/05/06 10:17:52;;;;;;;11.35;8.65;;;23.80;75.80;;;;;;5097812;28;20052;-76
2022/05/06 10:20:59;;;;;;;16.33;10.02;;;23.90;75.10;;;;;;5097642;28;20040;-76
2022/05/06 10:23:51;;;;;;;14.02;9.65;;;24.30;73.10;;;;;;5097782;28;20040;-76
2022/05/06 10:26:41;;;;;;;13.50;9.35;;;24.30;73.00;;;;;;5098480;28;20069;-77
2022/05/06 10:35:10;;;;;;;16.80;10.40;;;24.50;72.50;;;;;;5098311;28;20055;-76
2022/05/06 10:37:39;;;;;;;14.70;11.27;;;24.70;72.10;;;;;;5098881;28;20032;-77
2022/05/06 10:40:31;;;;;;;17.60;11.88;;;24.80;71.00;;;;;;5102191;28;20083;-76
2022/05/06 10:42:58;;;;;;;10.13;8.68;;;24.70;71.50;;;;;;5080613;28;20151;-77
2022/05/06 10:45:28;;;;;;;16.92;11.10;;;24.80;70.90;;;;;;5100597;28;20047;-76
2022/05/06 10:47:56;;;;;;;14.40;12.38;;;24.80;70.80;;;;;;5101584;28;20124;-76
2022/05/06 10:50:29;;;;;;;15.73;8.80;;;24.50;72.50;;;;;;5101094;28;20101;-76
2022/05/06 10:52:57;;;;;;;15.45;11.52;;;24.50;72.00;;;;;;5101239;28;20067;-76
2022/05/06 10:55:26;;;;;;;23.55;13.20;;;24.80;71.80;;;;;;5102002;28;20040;-75
2022/05/06 10:58:13;;;;;;;18.80;11.88;;;25.00;72.20;;;;;;5084100;28;20048;-76
2022/05/06 11:00:42;;;;;;;14.93;12.40;;;25.00;71.70;;;;;;5103772;28;20074;-76
2022/05/06 11:03:10;;;;;;;12.68;9.10;;;25.10;71.90;;;;;;5101433;28;20043;-75
2022/05/06 11:05:38;;;;;;;12.52;10.50;;;25.40;70.80;;;;;;5101299;28;20040;-77
2022/05/06 11:08:07;;;;;;;19.88;11.90;;;25.30;71.60;;;;;;5098431;28;20044;-76
2022/05/06 11:10:36;;;;;;;23.60;10.85;;;25.40;71.10;;;;;;5079497;28;20388;-77
2022/05/06 11:13:09;;;;;;;21.30;15.45;;;25.40;72.00;;;;;;5097579;28;20131;-76
2022/05/06 11:15:38;;;;;;;22.55;17.25;;;25.40;72.00;;;;;;5096840;28;20036;-77
2022/05/06 11:18:07;;;;;;;24.92;18.63;;;25.40;71.20;;;;;;5096246;28;20414;-77
2022/05/06 11:20:36;;;;;;;29.73;19.50;;;25.40;70.70;;;;;;5078033;28;20494;-76
2022/05/06 11:23:05;;;;;;;24.17;18.95;;;25.20;70.90;;;;;;5077877;28;20059;-76
2022/05/06 11:25:37;;;;;;;14.38;9.68;;;25.20;70.90;;;;;;5096600;28;20044;-77
2022/05/06 11:28:10;;;;;;;12.05;8.25;;;25.20;69.00;;;;;;5096430;28;20097;-76
2022/05/06 11:30:44;;;;;;;12.73;9.23;;;24.80;68.70;;;;;;5096559;28;20040;-76
2022/05/06 11:33:23;;;;;;;15.85;11.55;;;25.00;69.10;;;;;;5096168;28;20050;-77
2022/05/06 11:35:52;;;;;;;20.48;10.00;;;25.10;66.90;;;;;;5096149;28;20040;-77
2022/05/06 11:38:30;;;;;;;13.05;8.38;;;25.20;66.10;;;;;;5098026;28;20044;-75
2022/05/06 11:41:07;;;;;;;11.68;7.38;;;25.30;64.60;;;;;;5096649;28;20040;-76
2022/05/06 11:43:34;;;;;;;13.52;7.95;;;25.40;61.90;;;;;;5097766;28;20051;-75
2022/05/06 11:48:49;;;;;;;10.60;8.23;;;25.10;62.20;;;;;;5079881;28;20050;-77
2022/05/06 11:51:20;;;;;;;15.02;10.48;;;25.40;64.20;;;;;;5098134;28;20119;-76
2022/05/06 11:53:49;;;;;;;12.90;9.13;;;25.50;66.10;;;;;;5097953;28;20043;-77
2022/05/06 11:56:21;;;;;;;14.85;11.05;;;25.50;64.50;;;;;;5099073;28;20058;-77
2022/05/06 11:58:50;;;;;;;11.32;8.93;;;25.60;62.60;;;;;;5082513;28;20064;-76
2022/05/06 12:01:27;;;;;;;11.50;6.65;;;25.50;61.50;;;;;;5103546;28;20448;-76
2022/05/06 12:03:59;;;;;;;18.05;8.32;;;25.50;61.20;;;;;;5103609;28;20050;-76
2022/05/06 12:06:27;;;;;;;11.85;7.72;;;25.50;61.90;;;;;;5105379;28;20081;-76
2022/05/06 12:09:09;;;;;;;10.13;7.30;;;25.20;61.60;;;;;;5105288;28;20048;-76
2022/05/06 12:11:36;;;;;;;11.00;7.35;;;24.90;61.50;;;;;;5103930;28;20086;-75
2022/05/06 12:14:07;;;;;;;11.02;8.70;;;24.90;61.50;;;;;;5102339;28;20441;-77
2022/05/06 12:16:37;;;;;;;12.25;7.13;;;24.90;62.00;;;;;;5103182;28;20055;-76
2022/05/06 12:19:04;;;;;;;9.68;5.43;;;24.90;59.80;;;;;;5105338;28;20043;-77
2022/05/06 12:21:35;;;;;;;11.57;6.20;;;24.80;57.20;;;;;;5084503;28;20048;-76
2022/05/06 12:24:03;;;;;;;12.65;6.65;;;24.60;58.40;;;;;;5096340;28;20044;-77
2022/05/06 12:26:36;;;;;;;12.07;7.28;;;24.80;57.60;;;;;;5095733;28;20048;-77
2022/05/06 12:29:05;;;;;;;7.28;4.80;;;24.90;57.40;;;;;;5095003;28;20044;-75
2022/05/06 12:31:34;;;;;;;11.15;5.93;;;25.10;55.20;;;;;;5094758;28;20383;-76
2022/05/06 12:34:08;;;;;;;10.40;7.95;;;25.20;56.70;;;;;;5095512;28;20043;-76
2022/05/06 12:36:36;;;;;;;12.70;8.27;;;25.10;57.10;;;;;;5095204;28;20036;-77
2022/05/06 12:39:21;;;;;;;26.13;13.23;;;25.10;57.80;;;;;;5077654;28;20059;-77
2022/05/06 12:41:49;;;;;;;14.75;9.98;;;25.30;58.20;;;;;;5095619;28;20112;-75
2022/05/06 12:44:21;;;;;;;13.52;8.88;;;25.50;58.00;;;;;;5095232;28;20051;-77
2022/05/06 12:46:50;;;;;;;6.68;5.35;;;25.60;56.90;;;;;;5094939;28;20040;-76
2022/05/06 12:52:06;;;;;;;16.10;10.10;;;25.10;57.40;;;;;;5076802;28;20422;-76
2022/05/06 12:54:34;;;;;;;15.95;9.70;;;25.30;57.30;;;;;;5094752;28;20072;-76
2022/05/06 12:57:02;;;;;;;15.00;8.98;;;25.40;58.20;;;;;;5095462;28;20544;-76
2022/05/06 12:59:29;;;;;;;10.52;6.88;;;25.40;58.10;;;;;;5095827;28;20040;-77
2022/05/06 13:01:58;;;;;;;10.52;8.50;;;25.50;57.70;;;;;;5094705;28;20040;-77
2022/05/06 13:04:27;;;;;;;10.90;6.65;;;25.40;57.50;;;;;;5096965;28;20045;-76
2022/05/06 13:06:54;;;;;;;8.85;6.50;;;25.10;57.70;;;;;;5095113;28;20047;-76
2022/05/06 13:09:22;;;;;;;12.43;6.75;;;25.10;57.80;;;;;;5094433;28;20071;-76
2022/05/06 13:11:49;;;;;;;7.53;5.78;;;25.10;57.80;;;;;;5093199;28;20040;-77
2022/05/06 13:14:16;;;;;;;6.72;5.53;;;25.20;57.30;;;;;;5104427;28;20043;-76
2022/05/06 13:16:44;;;;;;;9.68;5.03;;;25.00;57.50;;;;;;5113828;28;20383;-77
2022/05/06 13:19:12;;;;;;;11.15;6.13;;;25.00;57.60;;;;;;5114303;28;20063;-75
2022/05/06 13:21:41;;;;;;;13.13;6.07;;;25.20;58.10;;;;;;5109599;28;20107;-77
2022/05/06 13:24:08;;;;;;;11.73;6.53;;;25.30;57.60;;;;;;5099337;28;20044;-77
2022/05/06 13:26:36;;;;;;;19.23;8.25;;;25.30;57.50;;;;;;5105546;28;20043;-77
2022/05/06 13:29:05;;;;;;;17.77;8.07;;;25.20;58.10;;;;;;5079533;28;20120;-77